EZY92DA EGPF-EGGW
Flight info
| Callsign | EZY92DA |
|---|---|
| Flight time | 0h 52m |
| Altitude | 37000 |
| Route | NORB1H NORBO T256 RIPNO DCT AKOMU DCT VAMEB UL612 LISTO LIST1N |
| Aircraft | A319/M-SDE3FGHIRWY/LB1 |
Departure
| Time | 2026-05-07 08:32 |
|---|---|
| Airport | Glasgow Airport (EGPF) |
Arrival
| Time | 2026-05-07 09:24 |
|---|---|
| Airport | London Luton Airport (EGGW) |
| Time | Latitude | Longitude | Altitude | Speed | Heading |
|---|---|---|---|---|---|
| 2026-05-07 08:19 | 55.86661 | -4.43131 | 32 ft | 0 kts | 73° |
| 2026-05-07 08:22 | 55.86658 | -4.43150 | 31 ft | 3 kts | 69° |
| 2026-05-07 08:22 | 55.86649 | -4.43182 | 31 ft | 3 kts | 51° |
| 2026-05-07 08:23 | 55.86635 | -4.43204 | 29 ft | 3 kts | 18° |
| 2026-05-07 08:23 | 55.86622 | -4.43208 | 30 ft | 1 kts | 345° |
| 2026-05-07 08:23 | 55.86621 | -4.43208 | 30 ft | 0 kts | 344° |
| 2026-05-07 08:26 | 55.86626 | -4.43211 | 30 ft | 2 kts | 344° |
| 2026-05-07 08:26 | 55.86658 | -4.43227 | 30 ft | 7 kts | 344° |
| 2026-05-07 08:27 | 55.86721 | -4.43260 | 31 ft | 12 kts | 343° |
| 2026-05-07 08:27 | 55.86800 | -4.43269 | 32 ft | 11 kts | 36° |
| 2026-05-07 08:27 | 55.86827 | -4.43145 | 31 ft | 11 kts | 73° |
| 2026-05-07 08:27 | 55.86850 | -4.43010 | 32 ft | 11 kts | 73° |
| 2026-05-07 08:28 | 55.86912 | -4.42921 | 31 ft | 12 kts | 26° |
| 2026-05-07 08:28 | 55.86995 | -4.42849 | 29 ft | 14 kts | 23° |
| 2026-05-07 08:28 | 55.87092 | -4.42786 | 28 ft | 15 kts | 20° |
| 2026-05-07 08:28 | 55.87194 | -4.42718 | 27 ft | 16 kts | 21° |
| 2026-05-07 08:29 | 55.87299 | -4.42647 | 28 ft | 16 kts | 20° |
| 2026-05-07 08:29 | 55.87401 | -4.42563 | 27 ft | 17 kts | 37° |
| 2026-05-07 08:29 | 55.87478 | -4.42420 | 29 ft | 16 kts | 47° |
| 2026-05-07 08:29 | 55.87559 | -4.42268 | 26 ft | 18 kts | 46° |
| 2026-05-07 08:30 | 55.87647 | -4.42106 | 24 ft | 19 kts | 46° |
| 2026-05-07 08:30 | 55.87743 | -4.41928 | 24 ft | 20 kts | 45° |
| 2026-05-07 08:30 | 55.87830 | -4.41847 | 22 ft | 13 kts | 6° |
| 2026-05-07 08:30 | 55.87912 | -4.41892 | 24 ft | 11 kts | 313° |
| 2026-05-07 08:31 | 55.87901 | -4.42008 | 25 ft | 12 kts | 225° |
| 2026-05-07 08:31 | 55.87754 | -4.42280 | 25 ft | 65 kts | 226° |
| 2026-05-07 08:31 | 55.87277 | -4.43170 | 29 ft | 132 kts | 226° |
| 2026-05-07 08:31 | 55.86572 | -4.44501 | 362 ft | 153 kts | 223° |
| 2026-05-07 08:32 | 55.85851 | -4.45877 | 1107 ft | 151 kts | 221° |
| 2026-05-07 08:32 | 55.85096 | -4.47225 | 1720 ft | 161 kts | 221° |
| 2026-05-07 08:32 | 55.84237 | -4.48727 | 2124 ft | 185 kts | 221° |
| 2026-05-07 08:32 | 55.83258 | -4.50443 | 2619 ft | 210 kts | 222° |
| 2026-05-07 08:33 | 55.82158 | -4.52376 | 3224 ft | 232 kts | 223° |
| 2026-05-07 08:33 | 55.80987 | -4.54441 | 4143 ft | 240 kts | 223° |
| 2026-05-07 08:33 | 55.79796 | -4.56546 | 5173 ft | 243 kts | 224° |
| 2026-05-07 08:33 | 55.78589 | -4.58686 | 6187 ft | 247 kts | 224° |
| 2026-05-07 08:34 | 55.77366 | -4.60851 | 7175 ft | 250 kts | 224° |
| 2026-05-07 08:34 | 55.76120 | -4.63049 | 8144 ft | 254 kts | 224° |
| 2026-05-07 08:34 | 55.74856 | -4.65275 | 9103 ft | 257 kts | 223° |
| 2026-05-07 08:34 | 55.73573 | -4.67533 | 10061 ft | 262 kts | 223° |
| 2026-05-07 08:35 | 55.72229 | -4.69888 | 10512 ft | 283 kts | 223° |
| 2026-05-07 08:35 | 55.70760 | -4.72403 | 10924 ft | 302 kts | 223° |
| 2026-05-07 08:35 | 55.69085 | -4.74716 | 11614 ft | 310 kts | 207° |
| 2026-05-07 08:35 | 55.67013 | -4.75725 | 12357 ft | 319 kts | 186° |
| 2026-05-07 08:36 | 55.64774 | -4.75902 | 13158 ft | 324 kts | 184° |
| 2026-05-07 08:36 | 55.62505 | -4.75986 | 13952 ft | 329 kts | 179° |
| 2026-05-07 08:36 | 55.60222 | -4.75315 | 14589 ft | 338 kts | 166° |
| 2026-05-07 08:36 | 55.58033 | -4.73669 | 15272 ft | 347 kts | 153° |
| 2026-05-07 08:37 | 55.56056 | -4.71138 | 15949 ft | 355 kts | 144° |
| 2026-05-07 08:37 | 55.54130 | -4.68367 | 16630 ft | 360 kts | 144° |
| 2026-05-07 08:37 | 55.52175 | -4.65559 | 17294 ft | 364 kts | 145° |
| 2026-05-07 08:37 | 55.50197 | -4.62726 | 17977 ft | 369 kts | 145° |
| 2026-05-07 08:38 | 55.48188 | -4.59856 | 18597 ft | 373 kts | 145° |
| 2026-05-07 08:38 | 55.46157 | -4.56964 | 19191 ft | 377 kts | 145° |
| 2026-05-07 08:38 | 55.44109 | -4.54054 | 19793 ft | 381 kts | 145° |
| 2026-05-07 08:38 | 55.42036 | -4.51118 | 20396 ft | 383 kts | 144° |
| 2026-05-07 08:39 | 55.39946 | -4.48159 | 21006 ft | 387 kts | 144° |
| 2026-05-07 08:39 | 55.37843 | -4.45178 | 21608 ft | 390 kts | 144° |
| 2026-05-07 08:39 | 55.35747 | -4.42207 | 22184 ft | 394 kts | 144° |
| 2026-05-07 08:39 | 55.33575 | -4.39130 | 22745 ft | 398 kts | 144° |
| 2026-05-07 08:40 | 55.31403 | -4.36056 | 23309 ft | 402 kts | 144° |
| 2026-05-07 08:40 | 55.29238 | -4.33001 | 23807 ft | 406 kts | 144° |
| 2026-05-07 08:40 | 55.27024 | -4.29885 | 24289 ft | 409 kts | 144° |
| 2026-05-07 08:40 | 55.24795 | -4.26753 | 24759 ft | 411 kts | 144° |
| 2026-05-07 08:41 | 55.22556 | -4.23617 | 25221 ft | 414 kts | 144° |
| 2026-05-07 08:41 | 55.20298 | -4.20460 | 25682 ft | 417 kts | 144° |
| 2026-05-07 08:41 | 55.18037 | -4.17252 | 26156 ft | 419 kts | 141° |
| 2026-05-07 08:41 | 55.15968 | -4.13626 | 26607 ft | 423 kts | 136° |
| 2026-05-07 08:42 | 55.13938 | -4.09873 | 27048 ft | 426 kts | 136° |
| 2026-05-07 08:42 | 55.11897 | -4.06110 | 27489 ft | 428 kts | 136° |
| 2026-05-07 08:42 | 55.09841 | -4.02317 | 27926 ft | 431 kts | 136° |
| 2026-05-07 08:42 | 55.07774 | -3.98508 | 28356 ft | 434 kts | 136° |
| 2026-05-07 08:43 | 55.05689 | -3.94677 | 28764 ft | 437 kts | 136° |
| 2026-05-07 08:43 | 55.03586 | -3.90823 | 29166 ft | 439 kts | 136° |
| 2026-05-07 08:43 | 55.01472 | -3.86955 | 29567 ft | 442 kts | 136° |
| 2026-05-07 08:43 | 54.99343 | -3.83070 | 29948 ft | 445 kts | 136° |
| 2026-05-07 08:44 | 54.97194 | -3.79162 | 30270 ft | 448 kts | 136° |
| 2026-05-07 08:44 | 54.95000 | -3.75308 | 30575 ft | 449 kts | 140° |
| 2026-05-07 08:44 | 54.92576 | -3.72004 | 30916 ft | 448 kts | 148° |
| 2026-05-07 08:44 | 54.89895 | -3.69109 | 31260 ft | 449 kts | 150° |
| 2026-05-07 08:45 | 54.87218 | -3.66269 | 31573 ft | 451 kts | 150° |
| 2026-05-07 08:45 | 54.84540 | -3.63429 | 31988 ft | 450 kts | 150° |
| 2026-05-07 08:45 | 54.81910 | -3.60641 | 32441 ft | 448 kts | 150° |
| 2026-05-07 08:45 | 54.79248 | -3.57820 | 32893 ft | 447 kts | 150° |
| 2026-05-07 08:46 | 54.76602 | -3.55017 | 33345 ft | 446 kts | 150° |
| 2026-05-07 08:46 | 54.73961 | -3.52222 | 33795 ft | 444 kts | 150° |
| 2026-05-07 08:46 | 54.71326 | -3.49429 | 34219 ft | 443 kts | 150° |
| 2026-05-07 08:46 | 54.68700 | -3.46651 | 34592 ft | 442 kts | 150° |
| 2026-05-07 08:47 | 54.66084 | -3.43897 | 34988 ft | 440 kts | 150° |
| 2026-05-07 08:47 | 54.63468 | -3.41155 | 35341 ft | 440 kts | 151° |
| 2026-05-07 08:47 | 54.61738 | -3.39343 | 35593 ft | 438 kts | 151° |
| 2026-05-07 08:47 | 54.59134 | -3.36614 | 35946 ft | 438 kts | 151° |
| 2026-05-07 08:48 | 54.56534 | -3.33892 | 36279 ft | 437 kts | 151° |
| 2026-05-07 08:48 | 54.53943 | -3.31182 | 36567 ft | 437 kts | 150° |
| 2026-05-07 08:48 | 54.51341 | -3.28466 | 36823 ft | 437 kts | 150° |
| 2026-05-07 08:48 | 54.48735 | -3.25754 | 37001 ft | 437 kts | 150° |
| 2026-05-07 08:49 | 54.43549 | -3.20370 | 37040 ft | 434 kts | 150° |
| 2026-05-07 08:49 | 54.38366 | -3.15002 | 37052 ft | 436 kts | 150° |
| 2026-05-07 08:50 | 54.33169 | -3.09631 | 37051 ft | 436 kts | 150° |
| 2026-05-07 08:50 | 54.27970 | -3.04274 | 37054 ft | 436 kts | 150° |
| 2026-05-07 08:51 | 54.22770 | -2.98930 | 37057 ft | 436 kts | 150° |
| 2026-05-07 08:51 | 54.17560 | -2.93621 | 37051 ft | 435 kts | 153° |
| 2026-05-07 08:52 | 54.12089 | -2.89485 | 37074 ft | 432 kts | 158° |
| 2026-05-07 08:52 | 54.06554 | -2.85459 | 37076 ft | 431 kts | 158° |
| 2026-05-07 08:53 | 54.01039 | -2.81431 | 37071 ft | 431 kts | 158° |
| 2026-05-07 08:53 | 53.95514 | -2.77427 | 37053 ft | 432 kts | 158° |
| 2026-05-07 08:54 | 53.89986 | -2.73430 | 37059 ft | 432 kts | 158° |
| 2026-05-07 08:54 | 53.84454 | -2.69458 | 37068 ft | 431 kts | 158° |
| 2026-05-07 08:55 | 53.78931 | -2.65486 | 37073 ft | 431 kts | 158° |
| 2026-05-07 08:55 | 53.73422 | -2.61524 | 37070 ft | 431 kts | 158° |
| 2026-05-07 08:56 | 53.67933 | -2.57616 | 37060 ft | 431 kts | 157° |
| 2026-05-07 08:56 | 53.62402 | -2.53680 | 37053 ft | 432 kts | 158° |
| 2026-05-07 08:57 | 53.56861 | -2.49757 | 37065 ft | 432 kts | 158° |
| 2026-05-07 08:57 | 53.51316 | -2.45815 | 37072 ft | 432 kts | 158° |
| 2026-05-07 08:58 | 53.45775 | -2.41907 | 37079 ft | 432 kts | 158° |
| 2026-05-07 08:58 | 53.40228 | -2.37998 | 37089 ft | 432 kts | 158° |
| 2026-05-07 08:59 | 53.34683 | -2.34092 | 37089 ft | 432 kts | 158° |
| 2026-05-07 08:59 | 53.29138 | -2.30202 | 37080 ft | 433 kts | 158° |
| 2026-05-07 09:00 | 53.23590 | -2.26330 | 37084 ft | 432 kts | 158° |
| 2026-05-07 09:00 | 53.18040 | -2.22471 | 37091 ft | 432 kts | 158° |
| 2026-05-07 09:01 | 53.12702 | -2.17936 | 37090 ft | 431 kts | 144° |
| 2026-05-07 09:01 | 53.07856 | -2.12016 | 36842 ft | 432 kts | 144° |
| 2026-05-07 09:02 | 53.05468 | -2.09092 | 36579 ft | 430 kts | 143° |
| 2026-05-07 09:02 | 53.03056 | -2.06144 | 35952 ft | 432 kts | 143° |
| 2026-05-07 09:02 | 53.00619 | -2.03174 | 35102 ft | 436 kts | 142° |
| 2026-05-07 09:02 | 52.98338 | -2.00406 | 34341 ft | 439 kts | 142° |
| 2026-05-07 09:03 | 52.95820 | -1.97363 | 33700 ft | 437 kts | 142° |
| 2026-05-07 09:03 | 52.93381 | -1.94425 | 33176 ft | 431 kts | 142° |
| 2026-05-07 09:03 | 52.90964 | -1.91513 | 32628 ft | 426 kts | 142° |
| 2026-05-07 09:03 | 52.88581 | -1.88641 | 32088 ft | 422 kts | 142° |
| 2026-05-07 09:04 | 52.86212 | -1.85794 | 31554 ft | 418 kts | 142° |
| 2026-05-07 09:04 | 52.83872 | -1.82985 | 31029 ft | 414 kts | 142° |
| 2026-05-07 09:04 | 52.81550 | -1.80199 | 30527 ft | 411 kts | 142° |
| 2026-05-07 09:04 | 52.79242 | -1.77432 | 30000 ft | 408 kts | 143° |
| 2026-05-07 09:05 | 52.76959 | -1.74700 | 29471 ft | 403 kts | 143° |
| 2026-05-07 09:05 | 52.74708 | -1.72082 | 28982 ft | 399 kts | 147° |
| 2026-05-07 09:05 | 52.72283 | -1.69892 | 28455 ft | 395 kts | 151° |
| 2026-05-07 09:05 | 52.69860 | -1.67809 | 27973 ft | 391 kts | 151° |
| 2026-05-07 09:06 | 52.67460 | -1.65747 | 27520 ft | 387 kts | 151° |
| 2026-05-07 09:06 | 52.65082 | -1.63703 | 27039 ft | 384 kts | 151° |
| 2026-05-07 09:06 | 52.62730 | -1.61681 | 26597 ft | 380 kts | 151° |
| 2026-05-07 09:06 | 52.60388 | -1.59670 | 26160 ft | 378 kts | 151° |
| 2026-05-07 09:07 | 52.58069 | -1.57681 | 25719 ft | 375 kts | 151° |
| 2026-05-07 09:07 | 52.55758 | -1.55702 | 25285 ft | 373 kts | 152° |
| 2026-05-07 09:07 | 52.53468 | -1.53745 | 24855 ft | 370 kts | 152° |
| 2026-05-07 09:07 | 52.51191 | -1.51799 | 24415 ft | 367 kts | 152° |
| 2026-05-07 09:08 | 52.48929 | -1.49867 | 24030 ft | 365 kts | 152° |
| 2026-05-07 09:08 | 52.46691 | -1.47960 | 23573 ft | 363 kts | 152° |
| 2026-05-07 09:08 | 52.44451 | -1.46055 | 23082 ft | 360 kts | 152° |
| 2026-05-07 09:08 | 52.42245 | -1.44179 | 22641 ft | 356 kts | 153° |
| 2026-05-07 09:09 | 52.40058 | -1.42321 | 22225 ft | 352 kts | 153° |
| 2026-05-07 09:09 | 52.38005 | -1.40172 | 21660 ft | 352 kts | 138° |
| 2026-05-07 09:09 | 52.36336 | -1.37225 | 21112 ft | 353 kts | 132° |
| 2026-05-07 09:09 | 52.34725 | -1.34202 | 20633 ft | 351 kts | 132° |
| 2026-05-07 09:10 | 52.33122 | -1.31184 | 20158 ft | 350 kts | 131° |
| 2026-05-07 09:10 | 52.31548 | -1.28219 | 19608 ft | 352 kts | 132° |
| 2026-05-07 09:10 | 52.29938 | -1.25196 | 19101 ft | 352 kts | 133° |
| 2026-05-07 09:10 | 52.28329 | -1.22181 | 18640 ft | 351 kts | 132° |
| 2026-05-07 09:11 | 52.26716 | -1.19167 | 17943 ft | 356 kts | 133° |
| 2026-05-07 09:11 | 52.25084 | -1.16122 | 17336 ft | 357 kts | 132° |
| 2026-05-07 09:11 | 52.23452 | -1.13079 | 16837 ft | 355 kts | 132° |
| 2026-05-07 09:11 | 52.21722 | -1.10265 | 16358 ft | 350 kts | 146° |
| 2026-05-07 09:12 | 52.19614 | -1.08347 | 15766 ft | 345 kts | 155° |
| 2026-05-07 09:12 | 52.17461 | -1.06655 | 15163 ft | 342 kts | 155° |
| 2026-05-07 09:12 | 52.15314 | -1.05001 | 14567 ft | 340 kts | 156° |
| 2026-05-07 09:12 | 52.13184 | -1.03383 | 14001 ft | 337 kts | 156° |
| 2026-05-07 09:13 | 52.11057 | -1.01778 | 13384 ft | 335 kts | 156° |
| 2026-05-07 09:13 | 52.08960 | -1.00199 | 12713 ft | 330 kts | 156° |
| 2026-05-07 09:13 | 52.06884 | -0.98648 | 11948 ft | 326 kts | 156° |
| 2026-05-07 09:13 | 52.04835 | -0.97118 | 11185 ft | 324 kts | 156° |
| 2026-05-07 09:14 | 52.02799 | -0.95616 | 10649 ft | 314 kts | 156° |
| 2026-05-07 09:14 | 52.00870 | -0.94200 | 10466 ft | 295 kts | 156° |
| 2026-05-07 09:14 | 51.99028 | -0.92849 | 10016 ft | 288 kts | 156° |
| 2026-05-07 09:14 | 51.97217 | -0.91530 | 9429 ft | 284 kts | 156° |
| 2026-05-07 09:15 | 51.95427 | -0.90224 | 8830 ft | 280 kts | 156° |
| 2026-05-07 09:15 | 51.93665 | -0.88933 | 8260 ft | 276 kts | 156° |
| 2026-05-07 09:15 | 51.91901 | -0.87759 | 7652 ft | 272 kts | 167° |
| 2026-05-07 09:15 | 51.90048 | -0.87496 | 7104 ft | 266 kts | 180° |
| 2026-05-07 09:16 | 51.88207 | -0.87515 | 6544 ft | 262 kts | 181° |
| 2026-05-07 09:16 | 51.86463 | -0.87448 | 6245 ft | 247 kts | 169° |
| 2026-05-07 09:16 | 51.84922 | -0.86469 | 5973 ft | 232 kts | 153° |
| 2026-05-07 09:16 | 51.83548 | -0.85256 | 5715 ft | 220 kts | 151° |
| 2026-05-07 09:17 | 51.82233 | -0.84041 | 5468 ft | 215 kts | 146° |
| 2026-05-07 09:17 | 51.81183 | -0.82407 | 5358 ft | 206 kts | 126° |
| 2026-05-07 09:17 | 51.80558 | -0.80393 | 5271 ft | 198 kts | 108° |
| 2026-05-07 09:17 | 51.80368 | -0.78222 | 5233 ft | 197 kts | 90° |
| 2026-05-07 09:18 | 51.80599 | -0.76052 | 5148 ft | 197 kts | 74° |
| 2026-05-07 09:18 | 51.80972 | -0.73947 | 5055 ft | 192 kts | 76° |
| 2026-05-07 09:18 | 51.81338 | -0.71879 | 4852 ft | 190 kts | 77° |
| 2026-05-07 09:18 | 51.81699 | -0.69834 | 4605 ft | 189 kts | 76° |
| 2026-05-07 09:19 | 51.82057 | -0.67802 | 4348 ft | 188 kts | 76° |
| 2026-05-07 09:19 | 51.82410 | -0.65797 | 4089 ft | 187 kts | 76° |
| 2026-05-07 09:19 | 51.82765 | -0.63780 | 3833 ft | 186 kts | 77° |
| 2026-05-07 09:19 | 51.83117 | -0.61778 | 3579 ft | 185 kts | 76° |
| 2026-05-07 09:20 | 51.83466 | -0.59788 | 3321 ft | 183 kts | 76° |
| 2026-05-07 09:20 | 51.83807 | -0.57841 | 3072 ft | 177 kts | 76° |
| 2026-05-07 09:20 | 51.84134 | -0.55977 | 2839 ft | 167 kts | 77° |
| 2026-05-07 09:20 | 51.84431 | -0.54283 | 2621 ft | 148 kts | 76° |
| 2026-05-07 09:21 | 51.84698 | -0.52756 | 2423 ft | 136 kts | 76° |
| 2026-05-07 09:21 | 51.84951 | -0.51301 | 2237 ft | 133 kts | 77° |
| 2026-05-07 09:21 | 51.85201 | -0.49871 | 2059 ft | 132 kts | 78° |
| 2026-05-07 09:21 | 51.85449 | -0.48446 | 1883 ft | 131 kts | 78° |
| 2026-05-07 09:22 | 51.85696 | -0.47028 | 1696 ft | 131 kts | 77° |
| 2026-05-07 09:22 | 51.85943 | -0.45610 | 1515 ft | 131 kts | 76° |
| 2026-05-07 09:22 | 51.86190 | -0.44195 | 1336 ft | 130 kts | 76° |
| 2026-05-07 09:22 | 51.86441 | -0.42793 | 1128 ft | 130 kts | 75° |
| 2026-05-07 09:23 | 51.86683 | -0.41397 | 934 ft | 128 kts | 78° |
| 2026-05-07 09:23 | 51.86916 | -0.39990 | 756 ft | 129 kts | 76° |
| 2026-05-07 09:23 | 51.87161 | -0.38596 | 590 ft | 130 kts | 76° |
| 2026-05-07 09:23 | 51.87391 | -0.37260 | 521 ft | 113 kts | 74° |
| 2026-05-07 09:24 | 51.87560 | -0.36282 | 520 ft | 63 kts | 74° |
| 2026-05-07 09:24 | 51.87620 | -0.35937 | 516 ft | 11 kts | 63° |
| 2026-05-07 09:24 | 51.87683 | -0.35924 | 516 ft | 10 kts | 343° |
| 2026-05-07 09:24 | 51.87751 | -0.35961 | 516 ft | 11 kts | 334° |
| 2026-05-07 09:25 | 51.87783 | -0.36060 | 518 ft | 9 kts | 272° |
| 2026-05-07 09:25 | 51.87769 | -0.36160 | 518 ft | 10 kts | 253° |
| 2026-05-07 09:25 | 51.87748 | -0.36282 | 518 ft | 14 kts | 255° |
| 2026-05-07 09:25 | 51.87718 | -0.36457 | 519 ft | 18 kts | 254° |
| 2026-05-07 09:26 | 51.87683 | -0.36657 | 521 ft | 18 kts | 254° |
| 2026-05-07 09:26 | 51.87650 | -0.36847 | 525 ft | 17 kts | 254° |
| 2026-05-07 09:26 | 51.87618 | -0.37034 | 522 ft | 19 kts | 255° |
| 2026-05-07 09:26 | 51.87583 | -0.37241 | 522 ft | 18 kts | 255° |
| 2026-05-07 09:27 | 51.87589 | -0.37399 | 522 ft | 13 kts | 297° |
| 2026-05-07 09:27 | 51.87648 | -0.37478 | 522 ft | 10 kts | 329° |
| 2026-05-07 09:27 | 51.87731 | -0.37677 | 521 ft | 9 kts | 295° |
| 2026-05-07 09:28 | 51.87748 | -0.37733 | 523 ft | 3 kts | 295° |
| 2026-05-07 09:28 | 51.87761 | -0.37779 | 523 ft | 7 kts | 295° |
| 2026-05-07 09:28 | 51.87784 | -0.37858 | 523 ft | 6 kts | 296° |
| 2026-05-07 09:28 | 51.87809 | -0.37869 | 523 ft | 3 kts | 16° |
| 2026-05-07 09:29 | 51.87829 | -0.37851 | 523 ft | 3 kts | 31° |
| 2026-05-07 09:29 | 51.87840 | -0.37843 | 523 ft | 0 kts | 27° |